sensor_id;sensor_type;location;lat;lon;timestamp;P1;durP1;ratioP1;P2;durP2;ratioP2
55728;SDS011;41633;39.720;2.910;2023-03-14T00:00:52;17.17;;;8.35;;
55728;SDS011;41633;39.720;2.910;2023-03-14T00:05:44;16.70;;;7.57;;
55728;SDS011;41633;39.720;2.910;2023-03-14T00:10:36;16.48;;;6.97;;
55728;SDS011;41633;39.720;2.910;2023-03-14T00:13:04;14.85;;;6.30;;
55728;SDS011;41633;39.720;2.910;2023-03-14T00:15:35;14.88;;;6.65;;
55728;SDS011;41633;39.720;2.910;2023-03-14T00:18:01;17.85;;;5.95;;
55728;SDS011;41633;39.720;2.910;2023-03-14T00:20:29;16.08;;;6.95;;
55728;SDS011;41633;39.720;2.910;2023-03-14T00:22:56;17.85;;;8.35;;
55728;SDS011;41633;39.720;2.910;2023-03-14T00:25:24;17.17;;;6.65;;
55728;SDS011;41633;39.720;2.910;2023-03-14T00:27:52;15.35;;;6.53;;
55728;SDS011;41633;39.720;2.910;2023-03-14T00:30:21;18.05;;;7.25;;
55728;SDS011;41633;39.720;2.910;2023-03-14T00:32:50;18.35;;;7.75;;
55728;SDS011;41633;39.720;2.910;2023-03-14T00:35:21;15.15;;;7.53;;
55728;SDS011;41633;39.720;2.910;2023-03-14T00:37:47;15.25;;;7.15;;
55728;SDS011;41633;39.720;2.910;2023-03-14T00:40:15;14.88;;;6.65;;
55728;SDS011;41633;39.720;2.910;2023-03-14T00:42:44;14.20;;;6.43;;
55728;SDS011;41633;39.720;2.910;2023-03-14T00:45:16;14.98;;;7.80;;
55728;SDS011;41633;39.720;2.910;2023-03-14T00:47:46;15.13;;;6.97;;
55728;SDS011;41633;39.720;2.910;2023-03-14T00:50:14;17.08;;;7.03;;
55728;SDS011;41633;39.720;2.910;2023-03-14T00:52:42;15.05;;;6.95;;
55728;SDS011;41633;39.720;2.910;2023-03-14T00:55:15;13.35;;;5.55;;
55728;SDS011;41633;39.720;2.910;2023-03-14T00:57:41;14.98;;;6.13;;
55728;SDS011;41633;39.720;2.910;2023-03-14T01:00:13;12.65;;;5.50;;
55728;SDS011;41633;39.720;2.910;2023-03-14T01:02:42;12.63;;;4.45;;
55728;SDS011;41633;39.720;2.910;2023-03-14T01:05:09;12.00;;;4.38;;
55728;SDS011;41633;39.720;2.910;2023-03-14T01:07:37;11.38;;;3.60;;
55728;SDS011;41633;39.720;2.910;2023-03-14T01:10:06;10.52;;;3.67;;
55728;SDS011;41633;39.720;2.910;2023-03-14T01:12:34;10.70;;;3.45;;
55728;SDS011;41633;39.720;2.910;2023-03-14T01:15:00;10.93;;;3.17;;
55728;SDS011;41633;39.720;2.910;2023-03-14T01:17:29;15.20;;;2.60;;
55728;SDS011;41633;39.720;2.910;2023-03-14T01:19:58;12.60;;;2.45;;
55728;SDS011;41633;39.720;2.910;2023-03-14T01:22:32;14.20;;;2.42;;
55728;SDS011;41633;39.720;2.910;2023-03-14T01:24:59;9.20;;;1.85;;
55728;SDS011;41633;39.720;2.910;2023-03-14T01:27:26;10.50;;;2.00;;
55728;SDS011;41633;39.720;2.910;2023-03-14T01:32:20;7.53;;;1.98;;
55728;SDS011;41633;39.720;2.910;2023-03-14T01:34:49;11.60;;;1.90;;
55728;SDS011;41633;39.720;2.910;2023-03-14T01:37:16;6.53;;;1.75;;
55728;SDS011;41633;39.720;2.910;2023-03-14T01:39:44;10.63;;;2.03;;
55728;SDS011;41633;39.720;2.910;2023-03-14T01:42:15;10.00;;;1.40;;
55728;SDS011;41633;39.720;2.910;2023-03-14T01:44:58;10.48;;;1.70;;
55728;SDS011;41633;39.720;2.910;2023-03-14T01:47:26;8.25;;;1.85;;
55728;SDS011;41633;39.720;2.910;2023-03-14T01:52:21;9.02;;;1.65;;
55728;SDS011;41633;39.720;2.910;2023-03-14T01:54:52;8.63;;;1.52;;
55728;SDS011;41633;39.720;2.910;2023-03-14T01:57:41;6.60;;;1.50;;
55728;SDS011;41633;39.720;2.910;2023-03-14T02:00:14;10.75;;;1.60;;
55728;SDS011;41633;39.720;2.910;2023-03-14T02:02:47;12.43;;;1.60;;
55728;SDS011;41633;39.720;2.910;2023-03-14T02:05:20;7.90;;;1.60;;
55728;SDS011;41633;39.720;2.910;2023-03-14T02:07:55;9.57;;;1.38;;
55728;SDS011;41633;39.720;2.910;2023-03-14T02:10:25;7.20;;;1.23;;
55728;SDS011;41633;39.720;2.910;2023-03-14T02:12:53;12.60;;;1.55;;
55728;SDS011;41633;39.720;2.910;2023-03-14T02:15:21;7.32;;;1.15;;
55728;SDS011;41633;39.720;2.910;2023-03-14T02:17:47;8.18;;;1.23;;
55728;SDS011;41633;39.720;2.910;2023-03-14T02:23:02;6.10;;;1.00;;
55728;SDS011;41633;39.720;2.910;2023-03-14T02:25:41;6.45;;;1.20;;
55728;SDS011;41633;39.720;2.910;2023-03-14T02:28:09;6.68;;;0.98;;
55728;SDS011;41633;39.720;2.910;2023-03-14T02:30:35;7.18;;;1.05;;
55728;SDS011;41633;39.720;2.910;2023-03-14T02:33:07;5.55;;;0.90;;
55728;SDS011;41633;39.720;2.910;2023-03-14T02:35:35;9.35;;;1.20;;
55728;SDS011;41633;39.720;2.910;2023-03-14T02:40:32;8.23;;;1.23;;
55728;SDS011;41633;39.720;2.910;2023-03-14T02:42:59;6.85;;;1.10;;
55728;SDS011;41633;39.720;2.910;2023-03-14T02:45:32;6.82;;;1.25;;
55728;SDS011;41633;39.720;2.910;2023-03-14T02:48:02;7.80;;;1.50;;
55728;SDS011;41633;39.720;2.910;2023-03-14T02:50:31;9.82;;;1.45;;
55728;SDS011;41633;39.720;2.910;2023-03-14T02:53:01;8.27;;;1.50;;
55728;SDS011;41633;39.720;2.910;2023-03-14T02:55:30;10.30;;;1.50;;
55728;SDS011;41633;39.720;2.910;2023-03-14T02:57:59;5.22;;;1.20;;
55728;SDS011;41633;39.720;2.910;2023-03-14T03:00:26;7.57;;;1.52;;
55728;SDS011;41633;39.720;2.910;2023-03-14T03:02:57;8.32;;;1.20;;
55728;SDS011;41633;39.720;2.910;2023-03-14T03:05:25;9.15;;;1.42;;
55728;SDS011;41633;39.720;2.910;2023-03-14T03:07:52;6.97;;;1.25;;
55728;SDS011;41633;39.720;2.910;2023-03-14T03:10:32;5.43;;;1.05;;
55728;SDS011;41633;39.720;2.910;2023-03-14T03:13:00;7.93;;;1.23;;
55728;SDS011;41633;39.720;2.910;2023-03-14T03:15:29;5.05;;;1.00;;
55728;SDS011;41633;39.720;2.910;2023-03-14T03:17:55;7.68;;;1.15;;
55728;SDS011;41633;39.720;2.910;2023-03-14T03:20:22;5.95;;;1.30;;
55728;SDS011;41633;39.720;2.910;2023-03-14T03:22:50;8.60;;;1.50;;
55728;SDS011;41633;39.720;2.910;2023-03-14T03:25:19;6.15;;;1.38;;
55728;SDS011;41633;39.720;2.910;2023-03-14T03:27:45;7.65;;;1.27;;
55728;SDS011;41633;39.720;2.910;2023-03-14T03:32:39;6.82;;;1.23;;
55728;SDS011;41633;39.720;2.910;2023-03-14T03:35:08;7.30;;;1.65;;
55728;SDS011;41633;39.720;2.910;2023-03-14T03:37:37;7.30;;;1.35;;
55728;SDS011;41633;39.720;2.910;2023-03-14T03:40:03;8.43;;;1.40;;
55728;SDS011;41633;39.720;2.910;2023-03-14T03:42:31;7.00;;;1.42;;
55728;SDS011;41633;39.720;2.910;2023-03-14T03:44:59;8.88;;;1.52;;
55728;SDS011;41633;39.720;2.910;2023-03-14T03:47:25;10.48;;;1.45;;
55728;SDS011;41633;39.720;2.910;2023-03-14T03:49:53;10.20;;;1.58;;
55728;SDS011;41633;39.720;2.910;2023-03-14T03:52:22;6.03;;;1.23;;
55728;SDS011;41633;39.720;2.910;2023-03-14T03:54:50;10.15;;;1.35;;
55728;SDS011;41633;39.720;2.910;2023-03-14T03:57:19;5.60;;;1.17;;
55728;SDS011;41633;39.720;2.910;2023-03-14T03:59:45;7.80;;;1.30;;
55728;SDS011;41633;39.720;2.910;2023-03-14T04:02:14;8.40;;;1.58;;
55728;SDS011;41633;39.720;2.910;2023-03-14T04:04:41;10.07;;;1.45;;
55728;SDS011;41633;39.720;2.910;2023-03-14T04:07:07;9.77;;;1.40;;
55728;SDS011;41633;39.720;2.910;2023-03-14T04:12:10;6.47;;;1.30;;
55728;SDS011;41633;39.720;2.910;2023-03-14T04:14:38;6.88;;;1.48;;
55728;SDS011;41633;39.720;2.910;2023-03-14T04:17:16;5.57;;;1.15;;
55728;SDS011;41633;39.720;2.910;2023-03-14T04:19:44;8.60;;;1.48;;
55728;SDS011;41633;39.720;2.910;2023-03-14T04:22:12;6.85;;;1.40;;
55728;SDS011;41633;39.720;2.910;2023-03-14T04:24:38;6.55;;;1.50;;
55728;SDS011;41633;39.720;2.910;2023-03-14T04:27:05;8.65;;;1.60;;
55728;SDS011;41633;39.720;2.910;2023-03-14T04:29:33;10.32;;;1.52;;
55728;SDS011;41633;39.720;2.910;2023-03-14T04:32:01;7.80;;;1.52;;
55728;SDS011;41633;39.720;2.910;2023-03-14T04:34:29;7.65;;;1.50;;
55728;SDS011;41633;39.720;2.910;2023-03-14T04:36:56;6.97;;;1.40;;
55728;SDS011;41633;39.720;2.910;2023-03-14T04:39:24;9.65;;;1.30;;
55728;SDS011;41633;39.720;2.910;2023-03-14T04:41:51;7.28;;;1.27;;
55728;SDS011;41633;39.720;2.910;2023-03-14T04:44:23;6.03;;;1.13;;
55728;SDS011;41633;39.720;2.910;2023-03-14T04:46:51;6.75;;;1.40;;
55728;SDS011;41633;39.720;2.910;2023-03-14T04:49:17;6.95;;;1.10;;
55728;SDS011;41633;39.720;2.910;2023-03-14T04:51:46;4.75;;;0.98;;
55728;SDS011;41633;39.720;2.910;2023-03-14T04:54:35;4.43;;;1.00;;
55728;SDS011;41633;39.720;2.910;2023-03-14T04:57:04;7.82;;;1.45;;
55728;SDS011;41633;39.720;2.910;2023-03-14T04:59:33;6.45;;;1.20;;
55728;SDS011;41633;39.720;2.910;2023-03-14T05:02:00;9.00;;;1.20;;
55728;SDS011;41633;39.720;2.910;2023-03-14T05:04:28;6.10;;;1.30;;
55728;SDS011;41633;39.720;2.910;2023-03-14T05:06:58;6.40;;;1.30;;
55728;SDS011;41633;39.720;2.910;2023-03-14T05:09:27;6.40;;;1.20;;
55728;SDS011;41633;39.720;2.910;2023-03-14T05:11:59;6.25;;;1.33;;
55728;SDS011;41633;39.720;2.910;2023-03-14T05:14:28;7.63;;;1.30;;
55728;SDS011;41633;39.720;2.910;2023-03-14T05:16:54;7.53;;;1.20;;
55728;SDS011;41633;39.720;2.910;2023-03-14T05:24:15;6.18;;;1.00;;
55728;SDS011;41633;39.720;2.910;2023-03-14T05:26:43;6.13;;;1.25;;
55728;SDS011;41633;39.720;2.910;2023-03-14T05:29:11;6.72;;;1.20;;
55728;SDS011;41633;39.720;2.910;2023-03-14T05:31:42;4.70;;;1.17;;
55728;SDS011;41633;39.720;2.910;2023-03-14T05:34:11;9.05;;;1.35;;
55728;SDS011;41633;39.720;2.910;2023-03-14T05:36:39;6.72;;;1.13;;
55728;SDS011;41633;39.720;2.910;2023-03-14T05:39:05;7.20;;;1.40;;
55728;SDS011;41633;39.720;2.910;2023-03-14T05:41:34;9.35;;;1.55;;
55728;SDS011;41633;39.720;2.910;2023-03-14T05:44:01;5.55;;;1.38;;
55728;SDS011;41633;39.720;2.910;2023-03-14T05:48:57;6.15;;;1.30;;
55728;SDS011;41633;39.720;2.910;2023-03-14T05:51:43;6.63;;;1.30;;
55728;SDS011;41633;39.720;2.910;2023-03-14T05:54:11;5.72;;;1.30;;
55728;SDS011;41633;39.720;2.910;2023-03-14T05:56:38;6.45;;;1.35;;
55728;SDS011;41633;39.720;2.910;2023-03-14T05:59:05;6.25;;;1.35;;
55728;SDS011;41633;39.720;2.910;2023-03-14T06:01:35;6.25;;;1.40;;
55728;SDS011;41633;39.720;2.910;2023-03-14T06:04:02;4.75;;;1.30;;
55728;SDS011;41633;39.720;2.910;2023-03-14T06:06:30;6.47;;;1.42;;
55728;SDS011;41633;39.720;2.910;2023-03-14T06:08:57;7.05;;;1.50;;
55728;SDS011;41633;39.720;2.910;2023-03-14T06:13:50;5.93;;;1.27;;
55728;SDS011;41633;39.720;2.910;2023-03-14T06:16:16;6.45;;;1.45;;
55728;SDS011;41633;39.720;2.910;2023-03-14T06:18:44;6.60;;;1.40;;
55728;SDS011;41633;39.720;2.910;2023-03-14T06:21:15;6.63;;;1.40;;
55728;SDS011;41633;39.720;2.910;2023-03-14T06:23:41;8.77;;;1.50;;
55728;SDS011;41633;39.720;2.910;2023-03-14T06:26:10;5.97;;;1.27;;
55728;SDS011;41633;39.720;2.910;2023-03-14T06:28:38;8.80;;;1.83;;
55728;SDS011;41633;39.720;2.910;2023-03-14T06:31:07;8.60;;;2.15;;
55728;SDS011;41633;39.720;2.910;2023-03-14T06:33:35;8.07;;;1.52;;
55728;SDS011;41633;39.720;2.910;2023-03-14T06:36:03;7.47;;;1.42;;
55728;SDS011;41633;39.720;2.910;2023-03-14T06:38:31;6.82;;;1.38;;
55728;SDS011;41633;39.720;2.910;2023-03-14T06:41:06;7.85;;;1.60;;
55728;SDS011;41633;39.720;2.910;2023-03-14T06:43:41;6.40;;;1.20;;
55728;SDS011;41633;39.720;2.910;2023-03-14T06:46:10;5.53;;;1.20;;
55728;SDS011;41633;39.720;2.910;2023-03-14T06:48:36;6.65;;;1.30;;
55728;SDS011;41633;39.720;2.910;2023-03-14T06:51:03;9.80;;;1.75;;
55728;SDS011;41633;39.720;2.910;2023-03-14T06:53:35;7.97;;;1.58;;
55728;SDS011;41633;39.720;2.910;2023-03-14T06:56:04;9.35;;;1.75;;
55728;SDS011;41633;39.720;2.910;2023-03-14T06:58:31;7.82;;;1.83;;
55728;SDS011;41633;39.720;2.910;2023-03-14T07:03:28;8.20;;;1.65;;
55728;SDS011;41633;39.720;2.910;2023-03-14T07:05:54;5.63;;;1.27;;
55728;SDS011;41633;39.720;2.910;2023-03-14T07:08:22;9.13;;;1.60;;
55728;SDS011;41633;39.720;2.910;2023-03-14T07:10:48;12.43;;;2.15;;
55728;SDS011;41633;39.720;2.910;2023-03-14T07:13:17;10.02;;;2.60;;
55728;SDS011;41633;39.720;2.910;2023-03-14T07:15:44;10.85;;;2.10;;
55728;SDS011;41633;39.720;2.910;2023-03-14T07:18:12;11.52;;;5.00;;
55728;SDS011;41633;39.720;2.910;2023-03-14T07:20:39;9.57;;;2.70;;
55728;SDS011;41633;39.720;2.910;2023-03-14T07:23:07;8.43;;;2.58;;
55728;SDS011;41633;39.720;2.910;2023-03-14T07:25:36;11.02;;;3.20;;
55728;SDS011;41633;39.720;2.910;2023-03-14T07:28:03;9.45;;;2.75;;
55728;SDS011;41633;39.720;2.910;2023-03-14T07:30:32;20.05;;;8.93;;
55728;SDS011;41633;39.720;2.910;2023-03-14T07:33:01;15.20;;;4.80;;
55728;SDS011;41633;39.720;2.910;2023-03-14T07:35:28;11.15;;;4.00;;
55728;SDS011;41633;39.720;2.910;2023-03-14T07:40:21;9.40;;;2.42;;
55728;SDS011;41633;39.720;2.910;2023-03-14T07:42:52;14.48;;;5.35;;
55728;SDS011;41633;39.720;2.910;2023-03-14T07:45:24;14.07;;;5.60;;
55728;SDS011;41633;39.720;2.910;2023-03-14T07:47:53;9.65;;;2.70;;
55728;SDS011;41633;39.720;2.910;2023-03-14T07:50:24;6.57;;;1.67;;
55728;SDS011;41633;39.720;2.910;2023-03-14T07:52:50;9.45;;;1.92;;
55728;SDS011;41633;39.720;2.910;2023-03-14T07:55:21;8.85;;;2.00;;
55728;SDS011;41633;39.720;2.910;2023-03-14T07:57:48;9.23;;;2.08;;
55728;SDS011;41633;39.720;2.910;2023-03-14T08:00:15;8.93;;;1.80;;
55728;SDS011;41633;39.720;2.910;2023-03-14T08:02:43;8.57;;;1.50;;
55728;SDS011;41633;39.720;2.910;2023-03-14T08:05:10;11.48;;;2.05;;
55728;SDS011;41633;39.720;2.910;2023-03-14T08:07:37;8.10;;;1.88;;
55728;SDS011;41633;39.720;2.910;2023-03-14T08:10:07;9.15;;;1.90;;
55728;SDS011;41633;39.720;2.910;2023-03-14T08:12:57;10.00;;;2.28;;
55728;SDS011;41633;39.720;2.910;2023-03-14T08:15:29;7.30;;;1.60;;
55728;SDS011;41633;39.720;2.910;2023-03-14T08:17:55;8.13;;;1.70;;
55728;SDS011;41633;39.720;2.910;2023-03-14T08:20:28;7.60;;;1.23;;
55728;SDS011;41633;39.720;2.910;2023-03-14T08:22:59;11.02;;;1.70;;
55728;SDS011;41633;39.720;2.910;2023-03-14T08:25:26;7.20;;;1.70;;
55728;SDS011;41633;39.720;2.910;2023-03-14T08:27:54;8.27;;;1.88;;
55728;SDS011;41633;39.720;2.910;2023-03-14T08:30:22;7.90;;;1.80;;
55728;SDS011;41633;39.720;2.910;2023-03-14T08:32:49;9.27;;;1.90;;
55728;SDS011;41633;39.720;2.910;2023-03-14T08:35:17;10.68;;;1.85;;
55728;SDS011;41633;39.720;2.910;2023-03-14T08:37:45;10.35;;;1.75;;
55728;SDS011;41633;39.720;2.910;2023-03-14T08:40:12;7.07;;;1.73;;
55728;SDS011;41633;39.720;2.910;2023-03-14T08:42:39;8.32;;;2.05;;
55728;SDS011;41633;39.720;2.910;2023-03-14T08:45:08;7.50;;;1.63;;
55728;SDS011;41633;39.720;2.910;2023-03-14T08:47:39;8.32;;;1.63;;
55728;SDS011;41633;39.720;2.910;2023-03-14T08:50:07;8.63;;;1.73;;
55728;SDS011;41633;39.720;2.910;2023-03-14T08:52:35;10.13;;;2.05;;
55728;SDS011;41633;39.720;2.910;2023-03-14T08:55:03;8.00;;;2.10;;
55728;SDS011;41633;39.720;2.910;2023-03-14T08:57:30;10.27;;;1.90;;
55728;SDS011;41633;39.720;2.910;2023-03-14T08:59:57;7.03;;;1.60;;
55728;SDS011;41633;39.720;2.910;2023-03-14T09:02:24;9.32;;;1.60;;
55728;SDS011;41633;39.720;2.910;2023-03-14T09:04:52;7.30;;;1.50;;
55728;SDS011;41633;39.720;2.910;2023-03-14T09:07:24;5.43;;;1.23;;
55728;SDS011;41633;39.720;2.910;2023-03-14T09:09:52;5.95;;;1.67;;
55728;SDS011;41633;39.720;2.910;2023-03-14T09:12:21;9.32;;;1.40;;
55728;SDS011;41633;39.720;2.910;2023-03-14T09:14:51;7.88;;;1.63;;
55728;SDS011;41633;39.720;2.910;2023-03-14T09:17:17;9.85;;;1.98;;
55728;SDS011;41633;39.720;2.910;2023-03-14T09:19:45;9.15;;;1.48;;
55728;SDS011;41633;39.720;2.910;2023-03-14T09:22:14;6.63;;;1.65;;
55728;SDS011;41633;39.720;2.910;2023-03-14T09:24:42;7.00;;;1.45;;
55728;SDS011;41633;39.720;2.910;2023-03-14T09:27:08;8.93;;;1.70;;
55728;SDS011;41633;39.720;2.910;2023-03-14T09:29:36;7.03;;;1.60;;
55728;SDS011;41633;39.720;2.910;2023-03-14T09:32:05;8.13;;;1.63;;
55728;SDS011;41633;39.720;2.910;2023-03-14T09:34:35;10.65;;;1.92;;
55728;SDS011;41633;39.720;2.910;2023-03-14T09:37:01;7.18;;;1.25;;
55728;SDS011;41633;39.720;2.910;2023-03-14T09:39:30;9.43;;;2.00;;
55728;SDS011;41633;39.720;2.910;2023-03-14T09:42:00;8.38;;;1.70;;
55728;SDS011;41633;39.720;2.910;2023-03-14T09:44:30;6.13;;;1.60;;
55728;SDS011;41633;39.720;2.910;2023-03-14T09:47:03;7.53;;;1.77;;
55728;SDS011;41633;39.720;2.910;2023-03-14T09:49:42;7.70;;;1.80;;
55728;SDS011;41633;39.720;2.910;2023-03-14T09:52:13;7.70;;;1.65;;
55728;SDS011;41633;39.720;2.910;2023-03-14T09:57:27;8.10;;;1.63;;
55728;SDS011;41633;39.720;2.910;2023-03-14T09:59:56;10.82;;;1.60;;
55728;SDS011;41633;39.720;2.910;2023-03-14T10:02:26;6.57;;;1.38;;
55728;SDS011;41633;39.720;2.910;2023-03-14T10:04:55;8.32;;;1.48;;
55728;SDS011;41633;39.720;2.910;2023-03-14T10:07:31;9.50;;;1.88;;
55728;SDS011;41633;39.720;2.910;2023-03-14T10:10:00;6.30;;;1.35;;
55728;SDS011;41633;39.720;2.910;2023-03-14T10:12:32;7.55;;;1.60;;
55728;SDS011;41633;39.720;2.910;2023-03-14T10:15:08;6.20;;;1.20;;
55728;SDS011;41633;39.720;2.910;2023-03-14T10:17:39;10.85;;;1.88;;
55728;SDS011;41633;39.720;2.910;2023-03-14T10:20:33;7.97;;;1.30;;
55728;SDS011;41633;39.720;2.910;2023-03-14T10:25:44;6.50;;;1.20;;
55728;SDS011;41633;39.720;2.910;2023-03-14T10:28:32;8.82;;;1.40;;
55728;SDS011;41633;39.720;2.910;2023-03-14T10:30:59;9.43;;;1.40;;
55728;SDS011;41633;39.720;2.910;2023-03-14T10:33:32;8.70;;;1.55;;
55728;SDS011;41633;39.720;2.910;2023-03-14T10:38:32;9.40;;;1.30;;
55728;SDS011;41633;39.720;2.910;2023-03-14T10:41:00;6.10;;;1.33;;
55728;SDS011;41633;39.720;2.910;2023-03-14T10:43:35;6.43;;;1.35;;
55728;SDS011;41633;39.720;2.910;2023-03-14T10:46:18;22.67;;;3.13;;
55728;SDS011;41633;39.720;2.910;2023-03-14T10:48:46;10.35;;;1.50;;
55728;SDS011;41633;39.720;2.910;2023-03-14T10:51:47;9.65;;;1.52;;
55728;SDS011;41633;39.720;2.910;2023-03-14T10:54:19;7.43;;;1.40;;
55728;SDS011;41633;39.720;2.910;2023-03-14T10:56:57;7.45;;;1.35;;
55728;SDS011;41633;39.720;2.910;2023-03-14T10:59:35;11.02;;;1.45;;
55728;SDS011;41633;39.720;2.910;2023-03-14T11:02:04;10.18;;;1.80;;
55728;SDS011;41633;39.720;2.910;2023-03-14T11:04:49;9.13;;;1.67;;
55728;SDS011;41633;39.720;2.910;2023-03-14T11:10:19;7.95;;;1.42;;
55728;SDS011;41633;39.720;2.910;2023-03-14T11:26:25;11.23;;;1.30;;
55728;SDS011;41633;39.720;2.910;2023-03-14T11:28:56;6.15;;;1.23;;
55728;SDS011;41633;39.720;2.910;2023-03-14T11:31:27;8.27;;;1.40;;
55728;SDS011;41633;39.720;2.910;2023-03-14T11:37:04;7.95;;;1.50;;
55728;SDS011;41633;39.720;2.910;2023-03-14T11:39:38;7.97;;;1.50;;
55728;SDS011;41633;39.720;2.910;2023-03-14T11:42:15;8.70;;;1.58;;
55728;SDS011;41633;39.720;2.910;2023-03-14T11:44:46;7.32;;;1.55;;
55728;SDS011;41633;39.720;2.910;2023-03-14T11:47:20;7.45;;;1.23;;
55728;SDS011;41633;39.720;2.910;2023-03-14T11:52:23;5.45;;;1.08;;
55728;SDS011;41633;39.720;2.910;2023-03-14T11:55:07;8.00;;;1.38;;
55728;SDS011;41633;39.720;2.910;2023-03-14T11:57:39;5.78;;;1.13;;
55728;SDS011;41633;39.720;2.910;2023-03-14T12:00:19;6.60;;;1.13;;
55728;SDS011;41633;39.720;2.910;2023-03-14T12:10:46;5.45;;;1.00;;
55728;SDS011;41633;39.720;2.910;2023-03-14T12:13:17;6.15;;;1.00;;
55728;SDS011;41633;39.720;2.910;2023-03-14T12:15:54;5.18;;;1.33;;
55728;SDS011;41633;39.720;2.910;2023-03-14T12:18:34;5.97;;;1.20;;
55728;SDS011;41633;39.720;2.910;2023-03-14T12:21:11;6.78;;;1.00;;
55728;SDS011;41633;39.720;2.910;2023-03-14T12:23:52;19.48;;;2.67;;
55728;SDS011;41633;39.720;2.910;2023-03-14T12:26:27;6.90;;;1.38;;
55728;SDS011;41633;39.720;2.910;2023-03-14T12:42:56;9.70;;;2.30;;
55728;SDS011;41633;39.720;2.910;2023-03-14T12:47:50;7.70;;;1.90;;
55728;SDS011;41633;39.720;2.910;2023-03-14T12:50:21;8.55;;;1.60;;
55728;SDS011;41633;39.720;2.910;2023-03-14T12:58:21;10.15;;;2.03;;
55728;SDS011;41633;39.720;2.910;2023-03-14T13:00:59;8.05;;;2.05;;
55728;SDS011;41633;39.720;2.910;2023-03-14T13:03:36;5.72;;;1.40;;
55728;SDS011;41633;39.720;2.910;2023-03-14T13:06:05;8.10;;;1.85;;
55728;SDS011;41633;39.720;2.910;2023-03-14T13:08:43;10.23;;;1.70;;
55728;SDS011;41633;39.720;2.910;2023-03-14T13:11:20;7.25;;;1.05;;
55728;SDS011;41633;39.720;2.910;2023-03-14T13:13:47;5.53;;;1.00;;
55728;SDS011;41633;39.720;2.910;2023-03-14T13:16:17;5.68;;;1.13;;
55728;SDS011;41633;39.720;2.910;2023-03-14T13:18:44;5.00;;;1.10;;
55728;SDS011;41633;39.720;2.910;2023-03-14T13:21:17;9.32;;;1.50;;
55728;SDS011;41633;39.720;2.910;2023-03-14T13:24:01;5.97;;;1.27;;
55728;SDS011;41633;39.720;2.910;2023-03-14T13:26:42;6.90;;;1.20;;
55728;SDS011;41633;39.720;2.910;2023-03-14T13:29:20;6.53;;;1.23;;
55728;SDS011;41633;39.720;2.910;2023-03-14T13:31:49;8.07;;;1.50;;
55728;SDS011;41633;39.720;2.910;2023-03-14T13:34:17;6.70;;;1.30;;
55728;SDS011;41633;39.720;2.910;2023-03-14T13:36:46;6.38;;;1.30;;
55728;SDS011;41633;39.720;2.910;2023-03-14T13:39:17;7.47;;;2.50;;
55728;SDS011;41633;39.720;2.910;2023-03-14T13:41:45;5.95;;;1.20;;
55728;SDS011;41633;39.720;2.910;2023-03-14T13:44:26;9.25;;;3.65;;
55728;SDS011;41633;39.720;2.910;2023-03-14T13:47:03;9.30;;;3.40;;
55728;SDS011;41633;39.720;2.910;2023-03-14T13:49:38;8.25;;;1.80;;
55728;SDS011;41633;39.720;2.910;2023-03-14T13:55:17;7.22;;;1.38;;
55728;SDS011;41633;39.720;2.910;2023-03-14T13:57:44;7.95;;;1.73;;
55728;SDS011;41633;39.720;2.910;2023-03-14T14:00:22;6.60;;;1.30;;
55728;SDS011;41633;39.720;2.910;2023-03-14T14:02:54;7.57;;;1.80;;
55728;SDS011;41633;39.720;2.910;2023-03-14T14:05:22;6.18;;;1.50;;
55728;SDS011;41633;39.720;2.910;2023-03-14T14:07:49;9.25;;;1.40;;
55728;SDS011;41633;39.720;2.910;2023-03-14T14:10:20;7.15;;;1.45;;
55728;SDS011;41633;39.720;2.910;2023-03-14T14:12:48;7.40;;;1.50;;
55728;SDS011;41633;39.720;2.910;2023-03-14T14:15:27;7.00;;;1.30;;
55728;SDS011;41633;39.720;2.910;2023-03-14T14:18:07;8.93;;;1.30;;
55728;SDS011;41633;39.720;2.910;2023-03-14T14:20:35;6.75;;;1.33;;
55728;SDS011;41633;39.720;2.910;2023-03-14T14:23:03;6.82;;;1.65;;
55728;SDS011;41633;39.720;2.910;2023-03-14T14:25:32;6.60;;;1.30;;
55728;SDS011;41633;39.720;2.910;2023-03-14T14:28:14;7.20;;;1.30;;
55728;SDS011;41633;39.720;2.910;2023-03-14T14:30:40;6.30;;;1.00;;
55728;SDS011;41633;39.720;2.910;2023-03-14T14:33:10;7.05;;;1.60;;
55728;SDS011;41633;39.720;2.910;2023-03-14T14:35:38;7.50;;;1.63;;
55728;SDS011;41633;39.720;2.910;2023-03-14T14:38:09;5.95;;;1.23;;
55728;SDS011;41633;39.720;2.910;2023-03-14T14:40:43;6.80;;;1.20;;
55728;SDS011;41633;39.720;2.910;2023-03-14T14:43:10;6.70;;;1.80;;
55728;SDS011;41633;39.720;2.910;2023-03-14T14:45:42;7.32;;;1.73;;
55728;SDS011;41633;39.720;2.910;2023-03-14T14:48:09;10.07;;;1.77;;
55728;SDS011;41633;39.720;2.910;2023-03-14T14:53:30;7.88;;;1.95;;
55728;SDS011;41633;39.720;2.910;2023-03-14T14:55:59;7.65;;;1.42;;
55728;SDS011;41633;39.720;2.910;2023-03-14T14:58:29;10.13;;;1.33;;
55728;SDS011;41633;39.720;2.910;2023-03-14T15:01:19;7.28;;;1.60;;
55728;SDS011;41633;39.720;2.910;2023-03-14T15:03:45;8.00;;;1.40;;
55728;SDS011;41633;39.720;2.910;2023-03-14T15:06:12;7.22;;;1.52;;
55728;SDS011;41633;39.720;2.910;2023-03-14T15:08:40;7.43;;;1.65;;
55728;SDS011;41633;39.720;2.910;2023-03-14T15:11:08;9.75;;;2.13;;
55728;SDS011;41633;39.720;2.910;2023-03-14T15:13:38;26.63;;;5.18;;
55728;SDS011;41633;39.720;2.910;2023-03-14T15:16:08;7.82;;;1.80;;
55728;SDS011;41633;39.720;2.910;2023-03-14T15:18:34;5.78;;;1.40;;
55728;SDS011;41633;39.720;2.910;2023-03-14T15:21:02;5.85;;;1.17;;
55728;SDS011;41633;39.720;2.910;2023-03-14T15:23:29;7.28;;;1.42;;
55728;SDS011;41633;39.720;2.910;2023-03-14T15:25:56;5.50;;;0.93;;
55728;SDS011;41633;39.720;2.910;2023-03-14T15:28:27;7.22;;;1.38;;
55728;SDS011;41633;39.720;2.910;2023-03-14T15:30:55;9.13;;;2.40;;
55728;SDS011;41633;39.720;2.910;2023-03-14T15:33:24;7.13;;;2.50;;
55728;SDS011;41633;39.720;2.910;2023-03-14T15:35:51;5.15;;;1.17;;
55728;SDS011;41633;39.720;2.910;2023-03-14T15:38:20;5.88;;;1.25;;
55728;SDS011;41633;39.720;2.910;2023-03-14T15:40:48;11.55;;;3.15;;
55728;SDS011;41633;39.720;2.910;2023-03-14T15:43:15;4.90;;;1.20;;
55728;SDS011;41633;39.720;2.910;2023-03-14T15:45:43;8.18;;;1.60;;
55728;SDS011;41633;39.720;2.910;2023-03-14T15:48:16;8.95;;;1.20;;
55728;SDS011;41633;39.720;2.910;2023-03-14T15:50:43;6.70;;;1.40;;
55728;SDS011;41633;39.720;2.910;2023-03-14T15:53:09;5.72;;;1.30;;
55728;SDS011;41633;39.720;2.910;2023-03-14T15:55:36;9.25;;;1.20;;
55728;SDS011;41633;39.720;2.910;2023-03-14T15:58:03;4.93;;;1.35;;
55728;SDS011;41633;39.720;2.910;2023-03-14T16:00:32;6.63;;;2.00;;
55728;SDS011;41633;39.720;2.910;2023-03-14T16:03:01;7.68;;;2.25;;
55728;SDS011;41633;39.720;2.910;2023-03-14T16:05:29;6.68;;;2.08;;
55728;SDS011;41633;39.720;2.910;2023-03-14T16:07:56;8.13;;;1.48;;
55728;SDS011;41633;39.720;2.910;2023-03-14T16:10:22;8.13;;;1.90;;
55728;SDS011;41633;39.720;2.910;2023-03-14T16:12:48;6.75;;;1.83;;
55728;SDS011;41633;39.720;2.910;2023-03-14T16:15:17;8.90;;;2.22;;
55728;SDS011;41633;39.720;2.910;2023-03-14T16:17:45;9.82;;;1.75;;
55728;SDS011;41633;39.720;2.910;2023-03-14T16:20:15;5.15;;;1.15;;
55728;SDS011;41633;39.720;2.910;2023-03-14T16:22:45;6.60;;;1.60;;
55728;SDS011;41633;39.720;2.910;2023-03-14T16:25:21;5.13;;;1.20;;
55728;SDS011;41633;39.720;2.910;2023-03-14T16:27:47;7.60;;;1.50;;
55728;SDS011;41633;39.720;2.910;2023-03-14T16:30:14;7.95;;;1.30;;
55728;SDS011;41633;39.720;2.910;2023-03-14T16:32:45;9.02;;;1.65;;
55728;SDS011;41633;39.720;2.910;2023-03-14T16:35:13;6.80;;;1.30;;
55728;SDS011;41633;39.720;2.910;2023-03-14T16:37:39;7.85;;;1.52;;
55728;SDS011;41633;39.720;2.910;2023-03-14T16:40:07;6.72;;;1.33;;
55728;SDS011;41633;39.720;2.910;2023-03-14T16:42:36;7.45;;;1.80;;